Terminal Aerodrome Forecast
Issued by NWS

Current Version | Previous Version | Text Only | Print | Product List | Glossary On
Versions: 1 2 3 4 5 6 7 8 9 10 11 12 13 14 15
000
FTPA31 PHFO 261120
TAFHOG
TAF
PHOG 261120Z 2612/2712 14006KT P6SM FEW030 OVC200
     FM262100 04011KT P6SM SCT030 SCT050 BKN200
     FM270500 VRB06KT P6SM FEW030 SCT050
      AMD LTD TO VIS AND WIND TIL 261600=

USA.gov is the U.S. government's official web portal to all federal, state and local government web resources and services.